Time;durP1;ratioP1;P1;durP2;ratioP2;P2;SDS_P1;SDS_P2;PMS_P1;PMS_P2;Temp;Humidity;BMP_temperature;BMP_pressure;BME280_temperature;BME280_humidity;BME280_pressure;Samples;Min_cycle;Max_cycle;Signal;HPM_P1;HPM_P2
2022/08/27 00:01:43;;;;;;;;;;;;;;;22.29;65.77;100493.66;5074402;28;20337;-82
2022/08/27 00:04:46;;;;;;;;;;;;;;;22.30;65.92;100491.81;5074159;28;20320;-82
2022/08/27 00:07:50;;;;;;;;;;;;;;;22.32;66.13;100489.84;5074209;28;20403;-82
2022/08/27 00:10:53;;;;;;;;;;;;;;;22.31;66.38;100490.84;5074197;28;19923;-80
2022/08/27 00:13:56;;;;;;;;;;;;;;;22.31;66.50;100484.69;5074239;28;19970;-80
2022/08/27 00:16:58;;;;;;;;;;;;;;;22.30;66.48;100483.84;5073912;28;19927;-80
2022/08/27 00:20:03;;;;;;;;;;;;;;;22.24;66.74;100487.16;5074053;28;20296;-80
2022/08/27 00:23:06;;;;;;;;;;;;;;;22.12;67.42;100483.88;5074107;28;19927;-81
2022/08/27 00:26:09;;;;;;;;;;;;;;;22.21;66.89;100482.13;5073217;28;19927;-81
2022/08/27 00:29:12;;;;;;;;;;;;;;;22.18;66.63;100493.09;5074060;28;19924;-81
2022/08/27 00:32:16;;;;;;;;;;;;;;;22.05;66.30;100489.00;5073571;28;20391;-80
2022/08/27 00:35:19;;;;;;;;;;;;;;;22.16;65.46;100485.25;5073424;28;19927;-81
2022/08/27 00:38:22;;;;;;;;;;;;;;;21.96;65.51;100484.59;5073658;28;19928;-80
2022/08/27 00:41:26;;;;;;;;;;;;;;;21.80;65.84;100495.13;5072605;28;19924;-83
2022/08/27 00:44:30;;;;;;;;;;;;;;;21.66;66.13;100488.47;5073482;28;19942;-83
2022/08/27 00:47:39;;;;;;;;;;;;;;;21.55;66.56;100484.25;5073431;28;20330;-83
2022/08/27 00:50:46;;;;;;;;;;;;;;;21.46;67.02;100487.81;5073404;28;20334;-82
2022/08/27 00:53:50;;;;;;;;;;;;;;;21.28;67.68;100482.47;5072775;28;19970;-81
2022/08/27 00:56:54;;;;;;;;;;;;;;;21.33;67.31;100484.66;5073087;28;19927;-81
2022/08/27 00:59:56;;;;;;;;;;;;;;;21.40;67.18;100477.78;5073298;28;19938;-81
2022/08/27 01:02:59;;;;;;;;;;;;;;;21.33;67.36;100482.00;5073027;28;19947;-82
2022/08/27 01:06:04;;;;;;;;;;;;;;;21.59;66.60;100477.63;5073026;28;20387;-82
2022/08/27 01:09:10;;;;;;;;;;;;;;;21.91;65.38;100470.91;5073120;28;20006;-81
2022/08/27 01:12:14;;;;;;;;;;;;;;;21.83;65.38;100458.38;5072961;28;20338;-81
2022/08/27 01:15:18;;;;;;;;;;;;;;;21.98;64.95;100468.44;5072834;28;19923;-81
2022/08/27 01:18:21;;;;;;;;;;;;;;;22.13;65.03;100474.06;5072797;28;19975;-81
2022/08/27 01:21:29;;;;;;;;;;;;;;;22.21;64.65;100474.16;5072946;28;19958;-80
2022/08/27 01:24:41;;;;;;;;;;;;;;;22.16;64.36;100468.44;5072829;28;19923;-81
2022/08/27 01:27:45;;;;;;;;;;;;;;;22.08;64.87;100466.53;5072992;28;19930;-81
2022/08/27 01:30:48;;;;;;;;;;;;;;;22.10;64.84;100471.69;5072660;28;19923;-82
2022/08/27 01:34:02;;;;;;;;;;;;;;;22.08;65.12;100471.88;5071768;28;19923;-81
2022/08/27 01:37:06;;;;;;;;;;;;;;;22.12;65.60;100467.91;5072575;28;20395;-81
2022/08/27 01:40:12;;;;;;;;;;;;;;;22.15;64.71;100454.28;5072045;28;19935;-83
2022/08/27 01:43:17;;;;;;;;;;;;;;;22.12;65.26;100456.41;5072604;28;20015;-83
2022/08/27 01:46:21;;;;;;;;;;;;;;;22.22;64.94;100447.34;5072463;28;19923;-83
2022/08/27 01:49:24;;;;;;;;;;;;;;;22.16;65.73;100453.28;5072787;28;19924;-82
2022/08/27 01:52:29;;;;;;;;;;;;;;;22.01;65.76;100450.34;5072554;28;19923;-82
2022/08/27 01:55:32;;;;;;;;;;;;;;;22.06;65.33;100455.22;5072860;28;19970;-83
2022/08/27 01:58:35;;;;;;;;;;;;;;;22.01;65.55;100445.00;5072424;28;19927;-83
2022/08/27 02:01:38;;;;;;;;;;;;;;;21.89;64.94;100445.41;5072792;28;19924;-82
2022/08/27 02:04:44;;;;;;;;;;;;;;;21.63;66.91;100451.53;5072470;28;19940;-83
2022/08/27 02:07:47;;;;;;;;;;;;;;;21.56;67.21;100447.81;5072424;28;20284;-83
2022/08/27 02:10:50;;;;;;;;;;;;;;;21.39;67.49;100446.84;5071469;28;19985;-83
2022/08/27 02:13:54;;;;;;;;;;;;;;;21.51;67.63;100447.47;5072306;28;19970;-83
2022/08/27 02:16:57;;;;;;;;;;;;;;;21.46;67.76;100450.56;5072271;28;19928;-83
2022/08/27 02:20:01;;;;;;;;;;;;;;;21.45;67.67;100448.06;5072397;28;19970;-83
2022/08/27 02:23:04;;;;;;;;;;;;;;;21.47;67.26;100449.56;5072255;28;19970;-84
2022/08/27 02:26:07;;;;;;;;;;;;;;;21.42;67.44;100443.88;5072190;28;20471;-83
2022/08/27 02:29:11;;;;;;;;;;;;;;;21.41;67.68;100450.22;5072057;28;19971;-83
2022/08/27 02:32:14;;;;;;;;;;;;;;;21.30;67.26;100448.56;5072160;28;20383;-83
2022/08/27 02:35:19;;;;;;;;;;;;;;;21.39;67.73;100457.50;5072095;28;20319;-83
2022/08/27 02:38:23;;;;;;;;;;;;;;;21.42;67.69;100449.22;5072177;28;20434;-83
2022/08/27 02:41:26;;;;;;;;;;;;;;;21.43;67.61;100455.38;5072381;28;19971;-82
2022/08/27 02:44:30;;;;;;;;;;;;;;;21.38;68.07;100447.84;5071985;28;19938;-83
2022/08/27 02:47:33;;;;;;;;;;;;;;;21.34;68.19;100452.56;5072108;28;19966;-83
2022/08/27 02:50:37;;;;;;;;;;;;;;;21.49;67.99;100449.44;5073162;28;20284;-83
2022/08/27 02:53:42;;;;;;;;;;;;;;;21.40;68.12;100455.66;5075670;28;19923;-83
2022/08/27 02:56:45;;;;;;;;;;;;;;;21.25;68.68;100458.84;5075377;28;19978;-82
2022/08/27 02:59:49;;;;;;;;;;;;;;;21.22;68.73;100452.94;5075458;28;19970;-82
2022/08/27 03:02:52;;;;;;;;;;;;;;;21.31;69.06;100446.72;5075491;28;20387;-82
2022/08/27 03:05:56;;;;;;;;;;;;;;;21.45;68.34;100448.91;5075662;28;19922;-82
2022/08/27 03:08:59;;;;;;;;;;;;;;;21.28;68.60;100452.34;5075561;28;19931;-81
2022/08/27 03:12:03;;;;;;;;;;;;;;;21.24;68.82;100453.66;5075220;28;19923;-81
2022/08/27 03:15:07;;;;;;;;;;;;;;;21.39;68.17;100443.38;5075213;28;19962;-81
2022/08/27 03:18:20;;;;;;;;;;;;;;;21.38;68.33;100453.16;5075217;28;19931;-80
2022/08/27 03:21:24;;;;;;;;;;;;;;;21.32;68.32;100457.22;5075200;28;20394;-80
2022/08/27 03:24:27;;;;;;;;;;;;;;;21.41;67.63;100444.88;5075001;28;19938;-82
2022/08/27 03:27:31;;;;;;;;;;;;;;;21.42;67.16;100453.69;5074870;28;19969;-82
2022/08/27 03:30:34;;;;;;;;;;;;;;;21.40;67.14;100456.50;5074839;28;19922;-81
2022/08/27 03:33:38;;;;;;;;;;;;;;;21.43;66.98;100461.50;5073857;28;19970;-81
2022/08/27 03:36:41;;;;;;;;;;;;;;;21.47;67.10;100462.88;5074660;28;20017;-82
2022/08/27 03:39:44;;;;;;;;;;;;;;;21.62;66.53;100465.84;5075010;28;20347;-81
2022/08/27 03:42:47;;;;;;;;;;;;;;;21.58;66.23;100467.97;5074635;28;20387;-81
2022/08/27 03:45:53;;;;;;;;;;;;;;;21.63;66.12;100466.66;5074833;28;19923;-82
2022/08/27 03:48:57;;;;;;;;;;;;;;;21.66;66.00;100461.88;5074582;28;19926;-81
2022/08/27 03:52:00;;;;;;;;;;;;;;;21.67;66.20;100468.06;5075128;28;20011;-81
2022/08/27 03:55:06;;;;;;;;;;;;;;;21.62;65.94;100459.69;5074479;28;19923;-81
2022/08/27 03:58:10;;;;;;;;;;;;;;;21.52;66.26;100460.59;5074482;28;19923;-81
2022/08/27 04:01:13;;;;;;;;;;;;;;;21.34;67.21;100465.88;5074850;28;19928;-80
2022/08/27 04:04:16;;;;;;;;;;;;;;;20.77;69.11;100473.25;5073715;28;19969;-80
2022/08/27 04:07:19;;;;;;;;;;;;;;;20.88;69.01;100465.06;5074663;28;19970;-82
2022/08/27 04:10:22;;;;;;;;;;;;;;;20.95;68.61;100467.13;5074252;28;19922;-82
2022/08/27 04:13:26;;;;;;;;;;;;;;;21.16;67.88;100469.53;5074250;28;19927;-82
2022/08/27 04:16:30;;;;;;;;;;;;;;;20.62;69.65;100475.53;5074322;28;19939;-82
2022/08/27 04:19:34;;;;;;;;;;;;;;;20.56;70.13;100469.97;5074008;28;20397;-81
2022/08/27 04:22:37;;;;;;;;;;;;;;;20.67;69.52;100469.78;5073958;28;20331;-82
2022/08/27 04:25:41;;;;;;;;;;;;;;;20.54;70.20;100464.78;5073746;28;19924;-81
2022/08/27 04:28:44;;;;;;;;;;;;;;;20.77;69.39;100470.59;5073871;28;19923;-81
2022/08/27 04:31:47;;;;;;;;;;;;;;;20.72;69.72;100469.34;5073981;28;19923;-81
2022/08/27 04:34:55;;;;;;;;;;;;;;;20.62;69.75;100472.06;5073475;28;19971;-81
2022/08/27 04:37:58;;;;;;;;;;;;;;;20.50;70.26;100478.50;5073564;28;19989;-81
2022/08/27 04:41:21;;;;;;;;;;;;;;;20.36;70.76;100477.16;5086137;28;19974;-81
2022/08/27 04:44:25;;;;;;;;;;;;;;;20.64;69.92;100486.00;5093870;28;19961;-82
2022/08/27 04:47:28;;;;;;;;;;;;;;;20.85;69.20;100493.75;5074249;28;20007;-80
2022/08/27 04:50:31;;;;;;;;;;;;;;;20.96;68.45;100496.22;5073492;28;20478;-79
2022/08/27 04:53:34;;;;;;;;;;;;;;;20.75;69.57;100491.16;5072264;28;19969;-77
2022/08/27 04:56:38;;;;;;;;;;;;;;;20.86;68.97;100490.94;5073124;28;20424;-78
2022/08/27 04:59:41;;;;;;;;;;;;;;;20.64;69.91;100492.19;5073264;28;19931;-78
2022/08/27 05:02:44;;;;;;;;;;;;;;;20.72;69.96;100496.75;5098139;28;20402;-78
2022/08/27 05:05:46;;;;;;;;;;;;;;;20.61;70.14;100500.44;5112750;28;20389;-77
2022/08/27 05:08:56;;;;;;;;;;;;;;;20.86;69.38;100503.41;5113682;28;19923;-78
2022/08/27 05:12:00;;;;;;;;;;;;;;;21.02;68.82;100508.91;5113886;28;19938;-78
2022/08/27 05:15:03;;;;;;;;;;;;;;;21.09;68.13;100507.34;5112745;28;20014;-78
2022/08/27 05:18:07;;;;;;;;;;;;;;;21.21;67.73;100509.78;5102889;28;19926;-78
2022/08/27 05:21:15;;;;;;;;;;;;;;;21.30;67.30;100504.41;5091461;28;19923;-76
2022/08/27 05:24:19;;;;;;;;;;;;;;;21.01;68.49;100493.94;5072757;28;20426;-77
2022/08/27 05:27:25;;;;;;;;;;;;;;;21.16;68.11;100498.78;5072836;28;19997;-78
2022/08/27 05:30:29;;;;;;;;;;;;;;;21.31;67.43;100497.25;5072752;28;20399;-76
2022/08/27 05:33:32;;;;;;;;;;;;;;;21.38;67.22;100495.72;5072670;28;19924;-79
2022/08/27 05:36:37;;;;;;;;;;;;;;;21.40;67.07;100499.06;5072259;28;20517;-79
2022/08/27 05:39:40;;;;;;;;;;;;;;;21.16;68.06;100504.09;5072633;28;20406;-77
2022/08/27 05:42:43;;;;;;;;;;;;;;;21.30;67.26;100498.25;5099298;28;19938;-78
2022/08/27 05:45:47;;;;;;;;;;;;;;;21.27;67.54;100498.56;5072647;28;20441;-77
2022/08/27 05:48:51;;;;;;;;;;;;;;;20.85;69.17;100494.59;5072764;28;19923;-77
2022/08/27 05:51:54;;;;;;;;;;;;;;;21.05;68.43;100499.81;5107430;28;20398;-78
2022/08/27 05:55:19;;;;;;;;;;;;;;;21.16;68.31;100509.41;5095911;28;20382;-79
2022/08/27 06:01:48;;;;;;;;;;;;;;;21.31;67.56;100511.41;5080454;28;20296;-78
2022/08/27 06:04:52;;;;;;;;;;;;;;;21.25;67.77;100511.16;5070282;28;19928;-78
2022/08/27 06:07:55;;;;;;;;;;;;;;;21.44;67.25;100508.44;5074790;28;20024;-78
2022/08/27 06:11:00;;;;;;;;;;;;;;;21.53;67.00;100511.97;5084793;28;20327;-81
2022/08/27 06:14:04;;;;;;;;;;;;;;;21.44;67.52;100521.72;5087613;28;19927;-78
2022/08/27 06:17:07;;;;;;;;;;;;;;;20.76;70.08;100511.41;5088254;28;19927;-80
2022/08/27 06:20:11;;;;;;;;;;;;;;;20.94;69.43;100522.13;5073759;28;20323;-77
2022/08/27 06:23:14;;;;;;;;;;;;;;;20.61;70.48;100520.84;5075513;28;20304;-80
2022/08/27 06:26:18;;;;;;;;;;;;;;;20.73;70.62;100526.81;5086200;28;19922;-80
2022/08/27 06:29:22;;;;;;;;;;;;;;;21.01;69.49;100520.53;5093848;28;19946;-80
2022/08/27 06:32:25;;;;;;;;;;;;;;;20.92;69.90;100517.94;5093118;28;19926;-80
2022/08/27 06:35:28;;;;;;;;;;;;;;;21.10;69.30;100506.34;5092207;28;20021;-73
2022/08/27 06:38:31;;;;;;;;;;;;;;;20.14;73.16;100520.81;5087448;28;19974;-78
2022/08/27 06:41:35;;;;;;;;;;;;;;;20.15;73.03;100527.78;5074684;28;19971;-78
2022/08/27 06:44:47;;;;;;;;;;;;;;;20.04;73.58;100525.25;5104129;28;19964;-77
2022/08/27 06:47:52;;;;;;;;;;;;;;;20.25;72.96;100522.44;5098509;28;19923;-80
2022/08/27 06:50:55;;;;;;;;;;;;;;;20.53;71.89;100521.56;5097424;28;19958;-73
2022/08/27 06:54:00;;;;;;;;;;;;;;;19.85;74.43;100529.63;5092288;28;19973;-73
2022/08/27 06:57:03;;;;;;;;;;;;;;;19.86;74.76;100530.47;5090381;28;20177;-75
2022/08/27 07:00:08;;;;;;;;;;;;;;;20.11;74.02;100521.09;5072249;28;19928;-75
2022/08/27 07:03:11;;;;;;;;;;;;;;;20.28;73.17;100522.16;5069584;28;19924;-77
2022/08/27 07:06:15;;;;;;;;;;;;;;;20.10;73.92;100525.56;4717572;28;10000323;-79
2022/08/27 07:09:24;;;;;;;;;;;;;;;20.03;74.23;100524.44;5071340;28;19925;-81
2022/08/27 07:12:28;;;;;;;;;;;;;;;20.25;73.11;100530.41;5071377;28;19928;-81
2022/08/27 07:15:31;;;;;;;;;;;;;;;20.18;73.53;100528.31;5072817;28;20434;-80
2022/08/27 07:18:35;;;;;;;;;;;;;;;19.86;74.87;100530.47;5072464;28;19932;-78
2022/08/27 07:21:38;;;;;;;;;;;;;;;19.71;75.63;100524.72;5073066;28;19971;-80
2022/08/27 07:24:42;;;;;;;;;;;;;;;19.71;75.55;100522.06;5090013;28;19923;-80
2022/08/27 07:27:46;;;;;;;;;;;;;;;20.01;74.52;100526.41;5094036;28;19986;-79
2022/08/27 07:30:49;;;;;;;;;;;;;;;19.80;75.68;100529.19;5072759;28;19926;-79
2022/08/27 07:33:54;;;;;;;;;;;;;;;19.29;77.37;100525.75;5072406;28;19962;-79
2022/08/27 07:36:59;;;;;;;;;;;;;;;19.55;76.71;100538.50;5070366;28;21015;-79
2022/08/27 07:40:05;;;;;;;;;;;;;;;19.68;76.28;100531.13;5072197;28;20477;-80
2022/08/27 07:46:31;;;;;;;;;;;;;;;20.52;73.08;100540.31;5108786;28;19922;-86
2022/08/27 07:49:34;;;;;;;;;;;;;;;19.95;74.49;100542.88;5084471;28;20442;-86
2022/08/27 07:52:37;;;;;;;;;;;;;;;20.39;73.35;100546.75;5071017;28;19927;-82
2022/08/27 07:59:34;;;;;;;;;;;;;;;20.79;71.61;100543.00;5070991;28;19931;-85
2022/08/27 08:02:40;;;;;;;;;;;;;;;20.00;73.96;100537.97;5088713;28;20326;-85
2022/08/27 08:05:45;;;;;;;;;;;;;;;20.13;73.95;100530.59;5091082;28;19923;-87
2022/08/27 08:08:50;;;;;;;;;;;;;;;20.14;73.31;100537.56;5091733;28;19922;-86
2022/08/27 08:11:53;;;;;;;;;;;;;;;20.42;72.22;100540.28;5092119;28;19950;-86
2022/08/27 08:14:57;;;;;;;;;;;;;;;20.27;73.22;100544.41;5091680;28;20257;-85
2022/08/27 08:18:00;;;;;;;;;;;;;;;20.26;73.14;100548.00;5091679;28;19927;-85
2022/08/27 08:21:11;;;;;;;;;;;;;;;20.38;72.46;100547.69;5098142;28;20456;-86
2022/08/27 08:24:16;;;;;;;;;;;;;;;20.22;72.87;100550.13;5098874;28;19935;-87
2022/08/27 08:27:22;;;;;;;;;;;;;;;20.38;72.78;100554.84;5112323;28;19927;-87
2022/08/27 08:30:29;;;;;;;;;;;;;;;20.52;72.10;100556.25;5084003;28;20015;-87
2022/08/27 08:33:32;;;;;;;;;;;;;;;20.36;72.19;100554.16;5083820;28;19923;-87
2022/08/27 08:36:36;;;;;;;;;;;;;;;20.10;73.36;100557.41;5092014;28;20049;-86
2022/08/27 08:39:41;;;;;;;;;;;;;;;20.15;73.19;100559.63;5090975;28;20001;-86
2022/08/27 08:42:50;;;;;;;;;;;;;;;20.56;71.83;100563.78;5090650;28;20292;-87
2022/08/27 08:45:57;;;;;;;;;;;;;;;20.82;70.67;100563.16;5090731;28;19939;-87
2022/08/27 08:49:01;;;;;;;;;;;;;;;20.77;70.64;100570.69;5090371;28;19972;-87
2022/08/27 08:52:28;;;;;;;;;;;;;;;20.66;70.74;100571.72;5090779;28;20298;-88
2022/08/27 08:55:50;;;;;;;;;;;;;;;20.83;69.58;100565.66;5091583;28;19923;-87
2022/08/27 08:58:59;;;;;;;;;;;;;;;20.92;69.25;100563.94;5092539;28;19927;-88
2022/08/27 09:02:06;;;;;;;;;;;;;;;20.73;69.90;100564.00;5092731;28;19924;-88
2022/08/27 09:05:17;;;;;;;;;;;;;;;20.72;69.77;100563.19;5091709;28;19927;-84
2022/08/27 09:08:29;;;;;;;;;;;;;;;20.58;70.33;100566.28;5091440;28;19939;-87
2022/08/27 09:11:38;;;;;;;;;;;;;;;21.12;68.79;100560.22;5090857;28;19965;-87
2022/08/27 09:14:45;;;;;;;;;;;;;;;21.07;68.43;100562.47;5090824;28;19927;-87
2022/08/27 09:17:49;;;;;;;;;;;;;;;20.66;69.71;100558.44;5089164;28;20019;-87
2022/08/27 09:21:26;;;;;;;;;;;;;;;20.66;70.08;100561.94;5090093;28;20473;-86
2022/08/27 09:24:34;;;;;;;;;;;;;;;21.16;68.89;100559.94;5076883;28;20318;-86
2022/08/27 09:27:40;;;;;;;;;;;;;;;21.39;67.00;100555.91;5082518;28;19923;-84
2022/08/27 09:30:44;;;;;;;;;;;;;;;21.36;67.04;100556.19;5085407;28;20032;-86
2022/08/27 09:33:47;;;;;;;;;;;;;;;21.49;66.54;100562.00;5076959;28;20280;-87
2022/08/27 09:36:54;;;;;;;;;;;;;;;21.43;66.76;100554.59;5093499;28;19973;-84
2022/08/27 09:40:06;;;;;;;;;;;;;;;21.46;67.00;100561.47;5069278;28;19970;-85
2022/08/27 09:43:19;;;;;;;;;;;;;;;21.31;66.96;100558.44;5068893;28;19928;-85
2022/08/27 09:46:24;;;;;;;;;;;;;;;21.36;66.61;100557.03;5068727;28;19923;-84
2022/08/27 09:49:28;;;;;;;;;;;;;;;21.87;65.48;100549.41;5069717;28;20418;-82
2022/08/27 09:52:36;;;;;;;;;;;;;;;22.00;64.37;100546.34;5069513;28;19924;-84
2022/08/27 09:55:46;;;;;;;;;;;;;;;21.79;64.48;100552.84;5069770;28;19939;-87
2022/08/27 09:59:05;;;;;;;;;;;;;;;22.23;64.10;100549.38;5069043;28;19974;-87
2022/08/27 10:02:13;;;;;;;;;;;;;;;22.23;63.93;100550.22;5068047;28;19927;-88
2022/08/27 10:05:30;;;;;;;;;;;;;;;22.50;62.50;100557.25;5068244;28;20012;-87
2022/08/27 10:08:47;;;;;;;;;;;;;;;22.26;63.08;100555.22;5067419;28;19923;-86
2022/08/27 10:12:16;;;;;;;;;;;;;;;22.16;63.72;100556.31;5068770;28;19931;-87
2022/08/27 10:15:54;;;;;;;;;;;;;;;22.65;62.14;100553.97;5086830;28;19923;-85
2022/08/27 10:18:57;;;;;;;;;;;;;;;23.01;60.70;100557.38;5069417;28;19938;-85
2022/08/27 10:22:06;;;;;;;;;;;;;;;22.75;61.02;100552.06;5068909;28;19981;-86
2022/08/27 10:25:29;;;;;;;;;;;;;;;22.66;61.51;100553.00;5068864;28;19943;-87
2022/08/27 10:28:35;;;;;;;;;;;;;;;22.57;61.74;100557.44;5098103;28;20064;-87
2022/08/27 10:31:44;;;;;;;;;;;;;;;22.20;62.87;100555.84;5090800;28;20386;-87
2022/08/27 10:35:06;;;;;;;;;;;;;;;22.06;63.40;100554.56;5087536;28;19931;-87
2022/08/27 10:38:16;;;;;;;;;;;;;;;22.18;63.03;100552.53;5070732;28;19926;-86
2022/08/27 10:41:33;;;;;;;;;;;;;;;22.21;62.21;100546.06;5087025;28;19924;-86
2022/08/27 10:44:51;;;;;;;;;;;;;;;22.09;63.26;100552.59;5089082;28;19942;-86
2022/08/27 10:48:08;;;;;;;;;;;;;;;22.09;63.07;100557.91;5088780;28;19938;-86
2022/08/27 10:51:19;;;;;;;;;;;;;;;21.68;64.25;100560.19;5094062;28;19926;-87
2022/08/27 10:54:35;;;;;;;;;;;;;;;21.85;63.75;100562.00;5080247;28;19922;-88
2022/08/27 10:57:39;;;;;;;;;;;;;;;21.93;63.72;100561.28;5089270;28;19974;-87
2022/08/27 11:00:57;;;;;;;;;;;;;;;22.48;62.66;100553.88;5087095;28;19938;-86
2022/08/27 11:04:06;;;;;;;;;;;;;;;22.57;61.40;100561.94;5088911;28;19927;-86
2022/08/27 11:07:25;;;;;;;;;;;;;;;22.15;62.95;100562.63;5087563;28;19931;-83
2022/08/27 11:10:30;;;;;;;;;;;;;;;22.41;62.57;100552.84;5065753;28;20304;-83
2022/08/27 11:13:37;;;;;;;;;;;;;;;21.95;63.44;100551.28;5086812;28;19945;-70
2022/08/27 11:16:52;;;;;;;;;;;;;;;21.64;64.44;100553.50;5088557;28;19962;-71
2022/08/27 11:20:00;;;;;;;;;;;;;;;22.01;63.52;100546.19;5089205;28;20255;-71
2022/08/27 11:23:06;;;;;;;;;;;;;;;21.73;64.38;100549.91;5087478;28;20339;-70
2022/08/27 11:26:11;;;;;;;;;;;;;;;21.99;63.80;100553.50;5089274;28;19962;-70
2022/08/27 11:29:21;;;;;;;;;;;;;;;21.89;64.10;100552.75;5091623;28;19966;-71
2022/08/27 11:32:31;;;;;;;;;;;;;;;22.00;63.77;100557.00;5088071;28;20064;-69
2022/08/27 11:35:39;;;;;;;;;;;;;;;21.75;64.58;100555.94;5069453;28;20395;-68
2022/08/27 11:39:02;;;;;;;;;;;;;;;21.29;66.00;100552.44;5069171;28;19931;-68
2022/08/27 11:42:12;;;;;;;;;;;;;;;21.45;65.76;100552.66;5070161;28;19942;-69
2022/08/27 11:45:18;;;;;;;;;;;;;;;21.56;64.92;100557.75;5080436;28;19927;-69
2022/08/27 11:48:39;;;;;;;;;;;;;;;21.40;65.72;100562.88;5110225;28;19926;-70
2022/08/27 11:51:42;;;;;;;;;;;;;;;21.48;65.95;100555.00;5104977;28;20046;-70
2022/08/27 11:54:48;;;;;;;;;;;;;;;21.50;65.74;100550.34;5075382;28;19926;-70
2022/08/27 11:58:23;;;;;;;;;;;;;;;21.77;64.88;100545.97;5069875;28;20025;-70
2022/08/27 12:01:28;;;;;;;;;;;;;;;21.55;65.24;100552.59;5069175;28;20007;-70
2022/08/27 12:04:33;;;;;;;;;;;;;;;21.31;66.18;100553.09;5068649;28;19924;-70
2022/08/27 12:07:40;;;;;;;;;;;;;;;21.21;66.50;100562.97;5068852;28;19924;-69
2022/08/27 12:10:46;;;;;;;;;;;;;;;20.99;67.40;100564.19;5068937;28;19931;-70
2022/08/27 12:13:49;;;;;;;;;;;;;;;20.74;68.38;100563.88;5068881;28;19923;-69
2022/08/27 12:17:02;;;;;;;;;;;;;;;20.56;68.79;100568.25;5082165;28;20009;-70
2022/08/27 12:20:12;;;;;;;;;;;;;;;20.82;68.29;100573.78;5109720;28;20390;-69
2022/08/27 12:23:41;;;;;;;;;;;;;;;20.68;68.86;100577.75;5108244;28;19930;-70
2022/08/27 12:27:14;;;;;;;;;;;;;;;20.61;68.83;100572.16;5106815;28;20089;-70
2022/08/27 12:30:20;;;;;;;;;;;;;;;21.15;67.09;100572.38;5107294;28;20056;-70
2022/08/27 12:33:46;;;;;;;;;;;;;;;20.91;67.81;100570.25;5071823;28;19927;-70
2022/08/27 12:36:52;;;;;;;;;;;;;;;21.01;67.28;100564.88;5067154;28;19981;-71
2022/08/27 12:39:57;;;;;;;;;;;;;;;21.04;67.32;100562.78;5068952;28;19939;-70
2022/08/27 12:43:11;;;;;;;;;;;;;;;21.53;65.40;100552.72;5068822;28;20351;-70
2022/08/27 12:46:21;;;;;;;;;;;;;;;21.28;66.30;100551.63;5069001;28;19942;-70
2022/08/27 12:49:26;;;;;;;;;;;;;;;20.84;67.39;100558.53;5067183;28;19927;-71
2022/08/27 12:52:57;;;;;;;;;;;;;;;20.79;68.08;100560.78;5066612;28;19974;-70
2022/08/27 12:56:28;;;;;;;;;;;;;;;20.53;68.91;100556.09;5065652;28;20066;-71
2022/08/27 12:59:34;;;;;;;;;;;;;;;20.67;68.49;100552.97;5074314;28;19922;-69
2022/08/27 13:02:41;;;;;;;;;;;;;;;20.86;67.97;100557.38;5081457;28;20521;-69
2022/08/27 13:05:46;;;;;;;;;;;;;;;20.57;68.50;100556.66;5091349;28;20490;-69
2022/08/27 13:08:56;;;;;;;;;;;;;;;20.58;68.70;100553.88;5088229;28;19975;-70
2022/08/27 13:12:01;;;;;;;;;;;;;;;20.73;68.39;100550.72;5088124;28;19966;-69
2022/08/27 13:15:05;;;;;;;;;;;;;;;21.09;67.00;100555.22;5087805;28;19934;-69
2022/08/27 13:18:15;;;;;;;;;;;;;;;21.39;65.80;100547.94;5087295;28;19960;-66
2022/08/27 13:21:21;;;;;;;;;;;;;;;20.66;68.41;100543.34;5080652;28;19945;-65
2022/08/27 13:24:31;;;;;;;;;;;;;;;20.65;68.44;100552.28;5105893;28;20098;-66
2022/08/27 13:27:36;;;;;;;;;;;;;;;20.95;67.51;100558.34;5107505;28;20413;-75
2022/08/27 13:30:41;;;;;;;;;;;;;;;20.99;67.02;100549.06;5108178;28;20004;-65
2022/08/27 13:33:45;;;;;;;;;;;;;;;21.07;67.11;100546.53;5107866;28;19972;-65
2022/08/27 13:36:58;;;;;;;;;;;;;;;21.00;66.77;100544.63;5106849;28;19926;-65
2022/08/27 13:40:02;;;;;;;;;;;;;;;20.70;67.93;100543.88;5088719;28;20016;-65
2022/08/27 13:43:10;;;;;;;;;;;;;;;21.02;67.21;100538.16;5087743;28;19923;-65
2022/08/27 13:46:18;;;;;;;;;;;;;;;20.78;67.52;100541.34;5087131;28;20407;-66
2022/08/27 13:49:23;;;;;;;;;;;;;;;20.76;67.72;100548.63;5105529;28;20216;-65
2022/08/27 13:52:29;;;;;;;;;;;;;;;20.42;68.83;100540.28;5066039;28;19928;-65
2022/08/27 13:55:33;;;;;;;;;;;;;;;20.60;68.34;100537.75;5065775;28;20075;-65
2022/08/27 13:58:38;;;;;;;;;;;;;;;20.58;68.28;100543.25;5073275;28;20299;-65
2022/08/27 14:01:53;;;;;;;;;;;;;;;20.60;68.22;100535.94;5086516;28;19927;-66
2022/08/27 14:05:12;;;;;;;;;;;;;;;20.56;68.68;100536.38;5086743;28;19927;-69
2022/08/27 14:08:22;;;;;;;;;;;;;;;20.74;68.08;100541.75;5066842;28;19994;-70
2022/08/27 14:11:26;;;;;;;;;;;;;;;20.58;68.21;100540.59;5066770;28;19931;-68
2022/08/27 14:14:34;;;;;;;;;;;;;;;20.34;69.33;100533.06;5081129;28;20304;-71
2022/08/27 14:17:38;;;;;;;;;;;;;;;20.66;67.95;100538.03;5088055;28;19926;-68
2022/08/27 14:20:41;;;;;;;;;;;;;;;20.49;68.62;100545.88;5089481;28;19984;-71
2022/08/27 14:23:44;;;;;;;;;;;;;;;20.44;68.78;100538.34;5088938;28;19959;-70
2022/08/27 14:26:48;;;;;;;;;;;;;;;20.28;69.35;100538.09;5087868;28;19927;-68
2022/08/27 14:29:51;;;;;;;;;;;;;;;20.38;69.06;100546.88;5086354;28;20303;-68
2022/08/27 14:32:57;;;;;;;;;;;;;;;20.47;68.47;100538.06;5086917;28;19931;-71
2022/08/27 14:36:00;;;;;;;;;;;;;;;20.44;68.58;100548.97;5066369;28;20345;-71
2022/08/27 14:39:04;;;;;;;;;;;;;;;20.35;69.10;100544.50;5066587;28;20035;-71
2022/08/27 14:42:07;;;;;;;;;;;;;;;20.34;68.83;100542.84;5066896;28;19943;-71
2022/08/27 14:45:11;;;;;;;;;;;;;;;20.66;67.58;100543.34;5065149;28;20533;-71
2022/08/27 14:48:19;;;;;;;;;;;;;;;20.56;67.98;100537.22;5070834;28;19927;-71
2022/08/27 14:51:27;;;;;;;;;;;;;;;20.69;67.67;100536.91;5070505;28;19923;-70
2022/08/27 14:54:31;;;;;;;;;;;;;;;20.77;67.20;100545.00;5070265;28;19966;-70
2022/08/27 14:57:35;;;;;;;;;;;;;;;20.64;67.85;100540.00;5070450;28;20791;-71
2022/08/27 15:00:41;;;;;;;;;;;;;;;20.86;66.99;100543.25;5070908;28;20606;-70
2022/08/27 15:03:46;;;;;;;;;;;;;;;20.77;67.33;100554.75;5070745;28;19927;-70
2022/08/27 15:06:50;;;;;;;;;;;;;;;21.09;66.33;100544.56;5078239;28;20558;-70
2022/08/27 15:09:57;;;;;;;;;;;;;;;21.23;65.87;100539.75;5090533;28;19977;-70
2022/08/27 15:13:01;;;;;;;;;;;;;;;21.27;65.71;100543.75;5090167;28;20029;-70
2022/08/27 15:16:05;;;;;;;;;;;;;;;21.04;66.14;100552.13;5089793;28;20348;-70
2022/08/27 15:19:09;;;;;;;;;;;;;;;21.00;66.39;100545.44;5089684;28;20288;-70
2022/08/27 15:22:12;;;;;;;;;;;;;;;21.02;66.40;100546.13;5080056;28;19955;-70
2022/08/27 15:25:16;;;;;;;;;;;;;;;21.09;66.04;100549.88;5093014;28;19923;-71
2022/08/27 15:28:19;;;;;;;;;;;;;;;21.37;65.25;100539.25;5092189;28;20007;-71
2022/08/27 15:31:22;;;;;;;;;;;;;;;21.57;64.49;100532.81;5085000;28;19924;-72
2022/08/27 15:34:25;;;;;;;;;;;;;;;21.79;63.73;100530.69;5085394;28;19927;-70
2022/08/27 15:37:29;;;;;;;;;;;;;;;21.70;63.60;100532.44;5088689;28;19926;-70
2022/08/27 15:40:34;;;;;;;;;;;;;;;21.85;63.48;100539.88;5091638;28;19923;-70
2022/08/27 15:43:38;;;;;;;;;;;;;;;21.72;63.42;100529.63;5090817;28;19939;-71
2022/08/27 15:46:45;;;;;;;;;;;;;;;21.75;63.11;100530.16;5091928;28;19965;-70
2022/08/27 15:49:49;;;;;;;;;;;;;;;21.93;62.94;100526.66;5091417;28;19923;-70
2022/08/27 15:52:56;;;;;;;;;;;;;;;21.93;62.51;100526.66;5090104;28;20019;-69
2022/08/27 15:56:02;;;;;;;;;;;;;;;21.67;63.11;100535.41;5095452;28;19923;-70
2022/08/27 15:59:04;;;;;;;;;;;;;;;21.49;63.71;100532.72;5089725;28;19955;-70
2022/08/27 16:02:13;;;;;;;;;;;;;;;21.68;63.10;100542.41;5076467;28;20407;-70
2022/08/27 16:05:17;;;;;;;;;;;;;;;21.58;63.68;100545.13;5090115;28;20299;-70
2022/08/27 16:08:20;;;;;;;;;;;;;;;21.54;63.46;100538.44;5081927;28;20345;-67